createdAt,value
2024-01-24T00:00:06.735Z,24.18
2024-01-24T00:01:14.659Z,24.27
2024-01-24T00:02:16.573Z,24.23
2024-01-24T00:03:18.476Z,24.21
2024-01-24T00:04:21.607Z,24.28
2024-01-24T00:05:23.575Z,23.99
2024-01-24T00:06:25.392Z,24.11
2024-01-24T00:07:27.742Z,24.16
2024-01-24T00:08:29.464Z,24.02
2024-01-24T00:09:32.647Z,24.07
2024-01-24T00:10:34.478Z,24.03
2024-01-24T00:11:36.977Z,24.32
2024-01-24T00:12:38.994Z,24.07
2024-01-24T00:13:41.152Z,23.98
2024-01-24T00:14:43.091Z,24.27
2024-01-24T00:15:47.423Z,24.16
2024-01-24T00:16:49.284Z,24.14
2024-01-24T00:17:52.300Z,24.20
2024-01-24T00:18:54.139Z,24.67
2024-01-24T00:19:58.221Z,24.46
2024-01-24T00:21:01.239Z,24.08
2024-01-24T00:22:04.244Z,23.92
2024-01-24T00:23:06.219Z,24.35
2024-01-24T00:24:08.286Z,24.25
2024-01-24T00:25:10.132Z,24.19
2024-01-24T00:26:11.893Z,24.11
2024-01-24T00:27:16.161Z,24.29
2024-01-24T00:28:18.418Z,24.02
2024-01-24T00:29:20.240Z,24.16
2024-01-24T00:30:22.157Z,24.54
2024-01-24T00:31:24.174Z,24.11
2024-01-24T00:32:28.589Z,24.27
2024-01-24T00:33:34.158Z,24.23
2024-01-24T00:34:36.111Z,24.19
2024-01-24T00:35:39.598Z,24.48
2024-01-24T00:36:41.401Z,24.28
2024-01-24T00:37:43.368Z,24.41
2024-01-24T00:38:45.334Z,24.44
2024-01-24T00:39:48.968Z,24.30
2024-01-24T00:40:50.880Z,24.49
2024-01-24T00:41:54.291Z,24.20
2024-01-24T00:42:59.209Z,24.52
2024-01-24T00:44:00.975Z,24.24
2024-01-24T00:45:02.764Z,24.40
2024-01-24T00:46:04.636Z,24.40
2024-01-24T00:47:07.349Z,24.52
2024-01-24T00:48:09.763Z,24.12
2024-01-24T00:49:13.731Z,24.49
2024-01-24T00:50:15.709Z,24.36
2024-01-24T00:51:17.696Z,24.43
2024-01-24T00:52:19.562Z,24.37
2024-01-24T00:53:22.449Z,24.23
2024-01-24T00:54:24.369Z,24.31
2024-01-24T00:55:28.291Z,24.19
2024-01-24T00:56:30.542Z,24.16
2024-01-24T00:57:32.890Z,24.19
2024-01-24T00:58:34.849Z,24.01
2024-01-24T00:59:36.582Z,24.53
2024-01-24T01:00:38.732Z,24.47
2024-01-24T01:01:40.552Z,24.39
2024-01-24T01:02:44.355Z,24.25
2024-01-24T01:03:46.267Z,24.03
2024-01-24T01:04:48.057Z,24.23
2024-01-24T01:05:50.206Z,24.41
2024-01-24T01:06:52.089Z,24.11
2024-01-24T01:07:55.721Z,24.33
2024-01-24T01:08:57.569Z,24.25
2024-01-24T01:09:59.250Z,24.52
2024-01-24T01:11:01.375Z,24.05
2024-01-24T01:12:03.958Z,24.16
2024-01-24T01:13:05.930Z,24.37
2024-01-24T01:14:07.759Z,24.36
2024-01-24T01:15:09.675Z,24.55
2024-01-24T01:16:11.381Z,24.50
2024-01-24T01:17:13.216Z,24.46
2024-01-24T01:18:15.044Z,24.48
2024-01-24T01:19:16.872Z,24.48
2024-01-24T01:20:21.518Z,24.54
2024-01-24T01:21:23.335Z,24.27
2024-01-24T01:22:25.235Z,24.27
2024-01-24T01:23:27.267Z,24.28
2024-01-24T01:24:29.017Z,24.15
2024-01-24T01:25:30.738Z,24.43
2024-01-24T01:26:34.980Z,24.21
2024-01-24T01:27:36.774Z,24.50
2024-01-24T01:28:38.616Z,24.05
2024-01-24T01:29:40.564Z,24.33
2024-01-24T01:30:42.254Z,24.36
2024-01-24T01:31:44.112Z,24.13
2024-01-24T01:32:45.990Z,24.13
2024-01-24T01:33:47.851Z,24.33
2024-01-24T01:34:49.653Z,24.12
2024-01-24T01:35:51.775Z,23.96
2024-01-24T01:36:54.402Z,24.17
2024-01-24T01:37:56.124Z,24.37
2024-01-24T01:38:57.862Z,24.43
2024-01-24T01:40:00.062Z,24.28
2024-01-24T01:41:01.905Z,24.00
2024-01-24T01:42:04.333Z,24.10
2024-01-24T01:43:12.930Z,24.21
2024-01-24T01:44:18.564Z,24.06
2024-01-24T01:45:21.903Z,24.29
2024-01-24T01:46:23.836Z,24.11
2024-01-24T01:47:26.248Z,24.34
2024-01-24T01:48:29.090Z,24.25
2024-01-24T01:49:31.269Z,24.07
2024-01-24T01:50:33.356Z,24.30
2024-01-24T01:51:36.128Z,24.04
2024-01-24T01:52:41.020Z,24.38
2024-01-24T01:53:42.796Z,24.02
2024-01-24T01:54:45.653Z,24.29
2024-01-24T01:55:47.577Z,24.28
2024-01-24T01:56:49.447Z,24.03
2024-01-24T01:57:51.896Z,23.97
2024-01-24T01:58:54.199Z,24.14
2024-01-24T01:59:55.958Z,23.87
2024-01-24T02:00:57.862Z,24.09
2024-01-24T02:02:02.120Z,23.96
2024-01-24T02:03:04.045Z,23.99
2024-01-24T02:04:06.480Z,24.22
2024-01-24T02:05:08.423Z,24.23
2024-01-24T02:06:10.367Z,24.03
2024-01-24T02:07:12.209Z,24.05
2024-01-24T02:08:14.040Z,24.21
2024-01-24T02:09:18.242Z,24.25
2024-01-24T02:10:19.971Z,23.95
2024-01-24T02:11:22.313Z,24.30
2024-01-24T02:12:24.087Z,24.00
2024-01-24T02:13:31.409Z,24.23
2024-01-24T02:14:33.211Z,24.16
2024-01-24T02:15:34.958Z,24.32
2024-01-24T02:16:36.774Z,24.09
2024-01-24T02:17:38.833Z,23.98
2024-01-24T02:18:42.808Z,24.42
2024-01-24T02:19:44.700Z,24.12
2024-01-24T02:20:48.532Z,24.30
2024-01-24T02:21:50.408Z,24.07
2024-01-24T02:22:52.248Z,23.93
2024-01-24T02:23:55.369Z,23.78
2024-01-24T02:24:57.175Z,24.16
2024-01-24T02:25:59.060Z,24.37
2024-01-24T02:27:00.839Z,24.00
2024-01-24T02:28:02.645Z,24.11
2024-01-24T02:29:05.341Z,24.21
2024-01-24T02:30:12.888Z,24.10
2024-01-24T02:31:14.639Z,24.34
2024-01-24T02:32:16.750Z,24.29
2024-01-24T02:33:18.739Z,24.15
2024-01-24T02:34:20.619Z,24.30
2024-01-24T02:35:25.683Z,24.18
2024-01-24T02:36:27.436Z,24.08
2024-01-24T02:37:29.133Z,24.00
2024-01-24T02:38:33.212Z,24.20
2024-01-24T02:39:34.984Z,24.18
2024-01-24T02:40:38.005Z,24.53
2024-01-24T02:41:43.540Z,24.37
2024-01-24T02:42:45.368Z,24.05
2024-01-24T02:43:48.606Z,24.35
2024-01-24T02:44:50.664Z,24.04
2024-01-24T02:45:53.092Z,24.37
2024-01-24T02:46:57.752Z,24.20
2024-01-24T02:47:59.572Z,24.30
2024-01-24T02:49:02.427Z,24.11
2024-01-24T02:50:05.732Z,24.17
2024-01-24T02:51:07.435Z,24.43
2024-01-24T02:52:09.145Z,24.34
2024-01-24T02:53:10.862Z,24.28
2024-01-24T02:54:15.118Z,24.36
2024-01-24T02:55:17.141Z,24.22
2024-01-24T02:56:19.325Z,24.31
2024-01-24T02:57:21.134Z,24.25
2024-01-24T02:58:22.981Z,24.18
2024-01-24T02:59:26.958Z,24.21
2024-01-24T03:00:30.337Z,24.23
2024-01-24T03:01:32.179Z,24.33
2024-01-24T03:02:36.826Z,24.57
2024-01-24T03:03:42.245Z,24.41
2024-01-24T03:04:44.251Z,24.41
2024-01-24T03:05:46.109Z,24.53
2024-01-24T03:06:48.050Z,24.20
2024-01-24T03:07:49.787Z,24.22
2024-01-24T03:08:56.215Z,24.24
2024-01-24T03:09:58.100Z,24.45
2024-01-24T03:10:59.843Z,24.53
2024-01-24T03:12:01.710Z,24.18
2024-01-24T03:13:04.439Z,24.34
2024-01-24T03:14:06.263Z,24.31
2024-01-24T03:15:08.384Z,24.44
2024-01-24T03:16:10.163Z,24.42
2024-01-24T03:17:11.915Z,24.42
2024-01-24T03:18:13.876Z,24.23
2024-01-24T03:19:18.009Z,24.51
2024-01-24T03:20:19.747Z,24.29
2024-01-24T03:21:21.584Z,24.28
2024-01-24T03:22:26.447Z,24.28
2024-01-24T03:23:29.491Z,24.38
2024-01-24T03:24:31.291Z,23.99
2024-01-24T03:25:33.063Z,24.38
2024-01-24T03:26:36.726Z,24.19
2024-01-24T03:27:41.042Z,24.26
2024-01-24T03:28:43.903Z,24.29
2024-01-24T03:29:45.630Z,24.43
2024-01-24T03:30:49.107Z,24.54
2024-01-24T03:31:51.038Z,24.59
2024-01-24T03:32:55.231Z,24.57
2024-01-24T03:33:57.112Z,24.42
2024-01-24T03:35:02.599Z,24.67
2024-01-24T03:36:05.069Z,24.58
2024-01-24T03:37:06.896Z,24.37
2024-01-24T03:38:10.529Z,24.29
2024-01-24T03:39:14.891Z,24.40
2024-01-24T03:40:16.899Z,24.33
2024-01-24T03:41:18.601Z,24.01
2024-01-24T03:42:20.404Z,24.40
2024-01-24T03:43:24.392Z,24.25
2024-01-24T03:44:26.305Z,24.49
2024-01-24T03:45:28.099Z,24.50
2024-01-24T03:46:29.813Z,24.55
2024-01-24T03:47:31.851Z,24.56
2024-01-24T03:48:33.794Z,24.55
2024-01-24T03:49:35.891Z,24.32
2024-01-24T03:50:39.231Z,24.33
2024-01-24T03:51:41.157Z,24.33
2024-01-24T03:52:42.970Z,24.36
2024-01-24T03:53:44.759Z,24.52
2024-01-24T03:54:46.521Z,24.49
2024-01-24T03:55:48.250Z,24.46
2024-01-24T03:56:50.647Z,24.65
2024-01-24T03:57:52.469Z,24.27
2024-01-24T03:58:54.259Z,24.68
2024-01-24T03:59:56.050Z,24.80
2024-01-24T04:00:57.874Z,24.75
2024-01-24T04:01:59.926Z,24.61
2024-01-24T04:03:01.679Z,24.62
2024-01-24T04:04:06.803Z,24.45
2024-01-24T04:05:09.184Z,24.68
2024-01-24T04:06:10.908Z,24.33
2024-01-24T04:07:12.863Z,24.55
2024-01-24T04:08:15.183Z,24.66
2024-01-24T04:09:17.004Z,24.45
2024-01-24T04:10:18.865Z,24.41
2024-01-24T04:11:20.691Z,24.75
2024-01-24T04:12:22.471Z,24.57
2024-01-24T04:13:25.306Z,24.53
2024-01-24T04:14:27.129Z,24.34
2024-01-24T04:15:28.842Z,24.71
2024-01-24T04:16:30.746Z,24.50
2024-01-24T04:17:32.667Z,24.44
2024-01-24T04:18:35.053Z,24.53
2024-01-24T04:19:36.960Z,24.66
2024-01-24T04:20:38.807Z,24.76
2024-01-24T04:21:47.108Z,24.41
2024-01-24T04:22:49.350Z,24.52
2024-01-24T04:23:51.066Z,24.39
2024-01-24T04:24:52.830Z,24.36
2024-01-24T04:25:54.544Z,24.45
2024-01-24T04:26:56.527Z,24.43
2024-01-24T04:27:58.763Z,24.39
2024-01-24T04:29:03.257Z,24.34
2024-01-24T04:30:06.545Z,24.54
2024-01-24T04:31:08.406Z,24.57
2024-01-24T04:32:10.858Z,24.52
2024-01-24T04:33:14.686Z,24.68
2024-01-24T04:34:18.490Z,24.36
2024-01-24T04:35:21.219Z,24.69
2024-01-24T04:36:22.982Z,24.46
2024-01-24T04:37:25.155Z,24.65
2024-01-24T04:38:27.320Z,24.45
2024-01-24T04:39:29.144Z,24.48
2024-01-24T04:40:30.892Z,24.58
2024-01-24T04:41:32.697Z,24.73
2024-01-24T04:42:34.513Z,24.34
2024-01-24T04:43:37.514Z,24.79
2024-01-24T04:44:39.250Z,24.71
2024-01-24T04:45:41.311Z,24.73
2024-01-24T04:46:43.036Z,24.55
2024-01-24T04:47:47.080Z,24.77
2024-01-24T04:48:49.661Z,24.70
2024-01-24T04:49:51.729Z,24.29
2024-01-24T04:50:53.711Z,24.49
2024-01-24T04:51:55.724Z,24.69
2024-01-24T04:52:57.700Z,24.69
2024-01-24T04:53:59.416Z,24.55
2024-01-24T04:55:01.354Z,24.55
2024-01-24T04:56:03.544Z,24.74
2024-01-24T04:57:05.598Z,24.73
2024-01-24T04:58:07.359Z,24.50
2024-01-24T04:59:09.184Z,24.46
2024-01-24T05:00:13.299Z,24.53
2024-01-24T05:01:15.428Z,24.80
2024-01-24T05:02:17.423Z,24.70
2024-01-24T05:03:19.226Z,24.80
2024-01-24T05:04:21.062Z,24.66
2024-01-24T05:05:22.842Z,24.73
2024-01-24T05:06:24.807Z,24.73
2024-01-24T05:07:26.737Z,24.74
2024-01-24T05:08:28.492Z,24.34
2024-01-24T05:09:30.282Z,24.54
2024-01-24T05:10:32.245Z,24.55
2024-01-24T05:11:33.976Z,24.41
2024-01-24T05:12:35.743Z,24.64
2024-01-24T05:13:38.088Z,24.76
2024-01-24T05:14:39.799Z,24.89
2024-01-24T05:15:41.590Z,24.36
2024-01-24T05:16:43.604Z,24.55
2024-01-24T05:17:45.467Z,24.62
2024-01-24T05:18:47.594Z,24.52
2024-01-24T05:19:50.109Z,24.70
2024-01-24T05:20:51.907Z,24.67
2024-01-24T05:21:53.936Z,25.02
2024-01-24T05:22:55.952Z,24.53
2024-01-24T05:23:57.686Z,25.02
2024-01-24T05:25:00.082Z,24.72
2024-01-24T05:26:04.955Z,24.82
2024-01-24T05:27:06.938Z,24.54
2024-01-24T05:28:09.556Z,24.85
2024-01-24T05:29:11.402Z,25.00
2024-01-24T05:30:20.245Z,24.70
2024-01-24T05:31:32.142Z,24.74
2024-01-24T05:32:34.752Z,24.44
2024-01-24T05:33:36.862Z,24.58
2024-01-24T05:34:38.746Z,24.91
2024-01-24T05:35:40.595Z,24.78
2024-01-24T05:36:42.421Z,24.49
2024-01-24T05:37:47.259Z,24.69
2024-01-24T05:38:49.038Z,25.15
2024-01-24T05:39:53.101Z,24.49
2024-01-24T05:40:54.843Z,24.65
2024-01-24T05:41:56.657Z,24.72
2024-01-24T05:42:58.482Z,24.74
2024-01-24T05:44:00.368Z,24.76
2024-01-24T05:45:02.100Z,24.79
2024-01-24T05:46:04.071Z,25.02
2024-01-24T05:47:06.400Z,25.03
2024-01-24T05:48:09.470Z,24.68
2024-01-24T05:49:11.493Z,24.91
2024-01-24T05:50:14.529Z,24.67
2024-01-24T05:51:16.282Z,24.57
2024-01-24T05:52:18.198Z,24.70
2024-01-24T05:53:20.026Z,24.98
2024-01-24T05:54:23.109Z,24.60
2024-01-24T05:55:25.183Z,24.76
2024-01-24T05:56:27.150Z,24.73
2024-01-24T05:57:28.959Z,24.62
2024-01-24T05:58:30.760Z,24.69
2024-01-24T05:59:34.502Z,24.85
2024-01-24T06:00:37.600Z,25.04
2024-01-24T06:01:39.480Z,24.43
2024-01-24T06:02:41.864Z,24.79
2024-01-24T06:03:43.720Z,24.98
2024-01-24T06:04:45.688Z,24.80
2024-01-24T06:05:47.558Z,24.82
2024-01-24T06:06:49.585Z,24.78
2024-01-24T06:07:51.649Z,25.25
2024-01-24T06:08:53.850Z,24.93
2024-01-24T06:09:55.948Z,24.87
2024-01-24T06:10:57.839Z,24.93
2024-01-24T06:12:00.257Z,24.88
2024-01-24T06:13:01.988Z,25.00
2024-01-24T06:14:04.365Z,25.10
2024-01-24T06:15:08.995Z,24.88
2024-01-24T06:16:11.052Z,24.93
2024-01-24T06:17:12.871Z,24.69
2024-01-24T06:18:14.708Z,24.75
2024-01-24T06:19:19.068Z,24.60
2024-01-24T06:20:20.882Z,24.80
2024-01-24T06:21:22.898Z,24.63
2024-01-24T06:22:24.697Z,24.55
2024-01-24T06:23:26.713Z,24.77
2024-01-24T06:24:28.708Z,24.36
2024-01-24T06:25:30.875Z,24.53
2024-01-24T06:26:32.583Z,24.52
2024-01-24T06:27:35.888Z,24.40
2024-01-24T06:28:38.247Z,24.49
2024-01-24T06:30:16.408Z,24.30
2024-01-24T06:31:03.378Z,24.12
2024-01-24T06:32:09.407Z,24.04
2024-01-24T06:33:11.235Z,24.27
2024-01-24T06:34:13.720Z,23.89
2024-01-24T06:35:15.628Z,24.02
2024-01-24T06:36:21.233Z,23.92
2024-01-24T06:37:22.990Z,24.20
2024-01-24T06:38:24.754Z,24.05
2024-01-24T06:39:27.130Z,24.13
2024-01-24T06:40:29.128Z,24.23
2024-01-24T06:41:31.171Z,24.29
2024-01-24T06:42:32.921Z,24.07
2024-01-24T06:43:36.594Z,24.12
2024-01-24T06:44:38.336Z,23.69
2024-01-24T06:45:40.073Z,23.75
2024-01-24T06:46:46.069Z,23.57
2024-01-24T06:47:47.924Z,23.60
2024-01-24T06:48:50.892Z,23.75
2024-01-24T06:49:53.222Z,23.61
2024-01-24T06:50:57.943Z,23.67
2024-01-24T06:51:59.672Z,23.79
2024-01-24T06:53:01.503Z,23.81
2024-01-24T06:54:03.654Z,23.74
2024-01-24T06:55:05.860Z,23.18
2024-01-24T06:56:07.858Z,23.74
2024-01-24T06:57:09.631Z,23.76
2024-01-24T06:58:11.435Z,23.25
2024-01-24T06:59:13.244Z,23.63
2024-01-24T07:00:15.553Z,23.35
2024-01-24T07:01:17.501Z,23.19
2024-01-24T07:02:19.284Z,23.53
2024-01-24T07:03:23.462Z,23.68
2024-01-24T07:04:26.637Z,23.45
2024-01-24T07:05:28.710Z,23.17
2024-01-24T07:06:30.645Z,23.56
2024-01-24T07:07:33.278Z,23.63
2024-01-24T07:08:38.727Z,23.48
2024-01-24T07:09:41.400Z,23.58
2024-01-24T07:10:47.102Z,23.60
2024-01-24T07:11:48.877Z,23.74
2024-01-24T07:12:50.976Z,23.69
2024-01-24T07:13:52.862Z,23.48
2024-01-24T07:14:56.059Z,23.48
2024-01-24T07:15:57.974Z,23.56
2024-01-24T07:16:59.866Z,23.32
2024-01-24T07:18:01.626Z,23.28
2024-01-24T07:19:05.877Z,23.53
2024-01-24T07:20:08.517Z,23.21
2024-01-24T07:21:11.098Z,23.55
2024-01-24T07:22:12.929Z,23.23
2024-01-24T07:23:14.827Z,23.65
2024-01-24T07:24:16.750Z,23.37
2024-01-24T07:25:22.310Z,23.24
2024-01-24T07:26:24.312Z,23.62
2024-01-24T07:27:26.100Z,23.56
2024-01-24T07:28:30.472Z,23.15
2024-01-24T07:29:32.546Z,23.46
2024-01-24T07:30:34.333Z,23.33
2024-01-24T07:31:36.112Z,23.24
2024-01-24T07:32:41.126Z,23.50
2024-01-24T07:33:43.319Z,23.52
2024-01-24T07:34:45.256Z,23.18
2024-01-24T07:35:47.269Z,23.45
2024-01-24T07:36:49.912Z,23.69
2024-01-24T07:37:52.373Z,23.56
2024-01-24T07:38:54.448Z,23.22
2024-01-24T07:39:56.398Z,23.17
2024-01-24T07:40:58.253Z,23.68
2024-01-24T07:42:00.022Z,23.29
2024-01-24T07:43:01.869Z,23.52
2024-01-24T07:44:03.829Z,23.63
2024-01-24T07:45:06.042Z,23.51
2024-01-24T07:46:08.067Z,23.50
2024-01-24T07:47:09.934Z,23.68
2024-01-24T07:48:15.768Z,23.43
2024-01-24T07:49:18.953Z,23.38
2024-01-24T07:50:21.209Z,23.29
2024-01-24T07:51:23.406Z,23.46
2024-01-24T07:52:32.472Z,23.62
2024-01-24T07:53:43.511Z,23.05
2024-01-24T07:54:46.076Z,23.57
2024-01-24T07:55:55.774Z,23.46
2024-01-24T07:57:05.073Z,23.79
2024-01-24T07:58:07.261Z,23.12
2024-01-24T07:59:09.527Z,23.55
2024-01-24T08:00:18.127Z,23.35
2024-01-24T08:01:22.081Z,23.16
2024-01-24T08:02:24.712Z,23.06
2024-01-24T08:03:26.558Z,23.25
2024-01-24T08:04:28.573Z,23.57
2024-01-24T08:05:31.157Z,23.23
2024-01-24T08:06:33.223Z,23.34
2024-01-24T08:07:38.039Z,23.47
2024-01-24T08:08:40.330Z,23.63
2024-01-24T08:09:42.097Z,23.80
2024-01-24T08:10:44.336Z,23.37
2024-01-24T08:11:48.188Z,23.57
2024-01-24T08:12:53.806Z,23.39
2024-01-24T08:13:55.778Z,23.23
2024-01-24T08:14:57.518Z,23.58
2024-01-24T08:15:59.454Z,23.72
2024-01-24T08:17:06.860Z,23.44
2024-01-24T08:18:09.364Z,23.56
2024-01-24T08:19:11.347Z,23.25
2024-01-24T08:20:13.209Z,23.35
2024-01-24T08:21:16.066Z,23.62
2024-01-24T08:22:17.839Z,23.41
2024-01-24T08:23:20.912Z,23.58
2024-01-24T08:24:24.978Z,23.20
2024-01-24T08:25:27.846Z,23.10
2024-01-24T08:26:29.887Z,23.43
2024-01-24T08:27:31.770Z,23.60
2024-01-24T08:28:33.585Z,23.27
2024-01-24T08:29:37.793Z,23.58
2024-01-24T08:30:40.114Z,23.49
2024-01-24T08:31:42.433Z,23.61
2024-01-24T08:32:44.416Z,23.66
2024-01-24T08:33:50.195Z,23.54
2024-01-24T08:34:53.743Z,23.46
2024-01-24T08:35:55.619Z,23.52
2024-01-24T08:36:57.455Z,23.27
2024-01-24T08:37:59.285Z,23.26
2024-01-24T08:39:01.253Z,23.44
2024-01-24T08:40:04.094Z,23.62
2024-01-24T08:41:05.960Z,23.74
2024-01-24T08:42:08.194Z,23.43
2024-01-24T08:43:10.131Z,23.18
2024-01-24T08:44:11.939Z,23.48
2024-01-24T08:45:16.551Z,23.23
2024-01-24T08:46:20.220Z,23.55
2024-01-24T08:47:22.321Z,23.70
2024-01-24T08:48:26.350Z,23.34
2024-01-24T08:49:28.297Z,23.49
2024-01-24T08:50:30.055Z,23.35
2024-01-24T08:51:32.989Z,23.83
2024-01-24T08:52:37.260Z,23.65
2024-01-24T08:53:39.131Z,23.44
2024-01-24T08:54:45.065Z,23.40
2024-01-24T08:55:47.657Z,23.65
2024-01-24T08:56:49.573Z,23.49
2024-01-24T08:57:52.142Z,23.34
2024-01-24T08:58:54.072Z,23.28
2024-01-24T08:59:56.140Z,23.72
2024-01-24T09:01:00.344Z,23.74
2024-01-24T09:02:06.191Z,23.61
2024-01-24T09:03:10.810Z,23.81
2024-01-24T09:04:13.633Z,23.76
2024-01-24T09:05:19.873Z,23.28
2024-01-24T09:06:23.101Z,23.69
2024-01-24T09:07:25.181Z,23.82
2024-01-24T09:08:27.099Z,23.69
2024-01-24T09:09:31.960Z,23.72
2024-01-24T09:10:34.604Z,23.80
2024-01-24T09:11:42.128Z,23.61
2024-01-24T09:12:51.271Z,23.68
2024-01-24T09:13:53.062Z,23.62
2024-01-24T09:14:56.251Z,23.37
2024-01-24T09:15:58.171Z,23.54
2024-01-24T09:17:00.093Z,23.76
2024-01-24T09:18:01.958Z,23.26
2024-01-24T09:19:03.943Z,23.90
2024-01-24T09:20:07.730Z,23.83
2024-01-24T09:21:10.158Z,23.60
2024-01-24T09:22:12.055Z,23.46
2024-01-24T09:23:14.434Z,23.76
2024-01-24T09:24:16.831Z,23.38
2024-01-24T09:25:20.424Z,23.62
2024-01-24T09:26:23.081Z,23.38
2024-01-24T09:27:25.093Z,23.68
2024-01-24T09:28:26.933Z,23.52
2024-01-24T09:29:28.655Z,23.68
2024-01-24T09:30:31.961Z,23.64
2024-01-24T09:31:33.721Z,23.64
2024-01-24T09:32:35.546Z,23.55
2024-01-24T09:33:39.908Z,23.66
2024-01-24T09:34:43.964Z,23.87
2024-01-24T09:35:47.687Z,23.65
2024-01-24T09:36:53.125Z,23.84
2024-01-24T09:37:55.014Z,23.56
2024-01-24T09:38:56.762Z,23.59
2024-01-24T09:39:58.694Z,23.92
2024-01-24T09:41:01.777Z,23.90
2024-01-24T09:42:04.817Z,23.92
2024-01-24T09:43:10.176Z,23.69
2024-01-24T09:44:15.270Z,23.56
2024-01-24T09:45:20.030Z,23.55
2024-01-24T09:46:22.250Z,23.75
2024-01-24T09:47:26.125Z,23.86
2024-01-24T09:48:28.176Z,23.77
2024-01-24T09:49:33.106Z,24.00
2024-01-24T09:50:35.972Z,23.66
2024-01-24T09:51:38.590Z,23.62
2024-01-24T09:52:44.189Z,23.46
2024-01-24T09:53:50.822Z,23.88
2024-01-24T09:55:01.230Z,23.93
2024-01-24T09:56:04.118Z,23.73
2024-01-24T09:57:07.672Z,23.55
2024-01-24T09:58:11.646Z,24.00
2024-01-24T09:59:14.520Z,24.02
2024-01-24T10:00:17.119Z,23.86
2024-01-24T10:01:20.719Z,23.70
2024-01-24T10:02:27.592Z,23.70
2024-01-24T10:03:31.499Z,23.78
2024-01-24T10:04:38.856Z,24.02
2024-01-24T10:05:43.956Z,23.93
2024-01-24T10:06:47.607Z,23.93
2024-01-24T10:07:51.029Z,24.05
2024-01-24T10:08:52.768Z,23.45
2024-01-24T10:10:20.784Z,23.72
2024-01-24T10:11:22.769Z,23.87
2024-01-24T10:12:25.317Z,23.84
2024-01-24T10:13:27.695Z,24.09
2024-01-24T10:14:29.468Z,23.80
2024-01-24T10:15:31.932Z,23.98
2024-01-24T10:16:34.006Z,23.92
2024-01-24T10:17:39.062Z,24.07
2024-01-24T10:18:42.924Z,23.80
2024-01-24T10:19:44.881Z,23.75
2024-01-24T10:20:53.176Z,24.14
2024-01-24T10:21:55.461Z,23.70
2024-01-24T10:22:57.445Z,24.04
2024-01-24T10:24:00.918Z,24.24
2024-01-24T10:25:03.042Z,23.78
2024-01-24T10:26:05.053Z,24.02
2024-01-24T10:27:08.886Z,23.80
2024-01-24T10:28:14.984Z,24.13
2024-01-24T10:29:17.093Z,24.19
2024-01-24T10:30:19.364Z,24.00
2024-01-24T10:31:21.347Z,24.19
2024-01-24T10:32:23.245Z,24.29
2024-01-24T10:33:25.321Z,23.86
2024-01-24T10:34:29.019Z,24.16
2024-01-24T10:35:31.197Z,24.09
2024-01-24T10:36:37.206Z,23.73
2024-01-24T10:37:42.291Z,24.11
2024-01-24T10:38:50.052Z,24.21
2024-01-24T10:39:56.130Z,23.95
2024-01-24T10:41:02.506Z,24.16
2024-01-24T10:42:11.053Z,24.00
2024-01-24T10:43:15.541Z,24.00
2024-01-24T10:44:18.217Z,23.71
2024-01-24T10:45:21.960Z,24.35
2024-01-24T10:46:24.220Z,24.05
2024-01-24T10:47:27.371Z,23.70
2024-01-24T10:48:32.334Z,24.25
2024-01-24T10:49:35.139Z,24.33
2024-01-24T10:50:40.291Z,24.09
2024-01-24T10:51:44.688Z,23.99
2024-01-24T10:53:53.533Z,23.79
2024-01-24T10:54:57.006Z,23.51
2024-01-24T10:56:01.438Z,23.85
2024-01-24T10:57:05.760Z,24.29
2024-01-24T10:58:12.025Z,24.24
2024-01-24T10:59:14.786Z,24.01
2024-01-24T11:00:20.489Z,24.39
2024-01-24T11:01:22.651Z,23.91
2024-01-24T11:02:24.580Z,24.39
2024-01-24T11:03:27.216Z,24.20
2024-01-24T11:04:30.054Z,24.23
2024-01-24T11:05:50.422Z,23.86
2024-01-24T11:07:03.269Z,24.19
2024-01-24T11:08:39.494Z,23.87
2024-01-24T11:10:19.757Z,24.32
2024-01-24T11:11:23.087Z,23.97
2024-01-24T11:12:25.458Z,24.13
2024-01-24T11:13:27.399Z,24.16
2024-01-24T11:14:34.726Z,24.02
2024-01-24T11:15:36.836Z,24.59
2024-01-24T11:16:40.953Z,24.38
2024-01-24T11:17:47.555Z,24.05
2024-01-24T11:18:49.571Z,24.34
2024-01-24T11:19:51.460Z,24.23
2024-01-24T11:21:00.777Z,24.15
2024-01-24T11:22:16.622Z,24.13
2024-01-24T11:23:44.700Z,23.98
2024-01-24T11:24:47.489Z,24.20
2024-01-24T11:25:51.366Z,24.01
2024-01-24T11:26:54.376Z,24.21
2024-01-24T11:28:00.808Z,24.50
2024-01-24T11:29:15.870Z,24.06
2024-01-24T11:30:27.938Z,24.32
2024-01-24T11:31:41.176Z,24.14
2024-01-24T11:32:46.572Z,24.38
2024-01-24T11:34:28.257Z,24.41
2024-01-24T11:35:43.140Z,24.47
2024-01-24T11:36:49.247Z,24.15
2024-01-24T11:37:53.347Z,24.00
2024-01-24T11:38:56.406Z,24.30
2024-01-24T11:39:58.331Z,24.19
2024-01-24T11:41:09.198Z,24.57
2024-01-24T11:42:32.098Z,24.63
2024-01-24T11:43:38.120Z,24.12
2024-01-24T11:44:44.014Z,24.56
2024-01-24T11:45:46.673Z,24.41
2024-01-24T11:46:48.538Z,24.09
2024-01-24T11:47:53.597Z,24.54
2024-01-24T11:48:55.591Z,24.36
2024-01-24T11:49:57.561Z,24.23
2024-01-24T11:51:00.960Z,24.46
2024-01-24T11:52:03.763Z,24.58
2024-01-24T11:53:05.626Z,24.52
2024-01-24T11:54:07.893Z,24.48
2024-01-24T11:55:09.944Z,24.36
2024-01-24T11:56:15.565Z,24.30
2024-01-24T11:57:17.379Z,24.86
2024-01-24T11:58:19.297Z,24.62
2024-01-24T11:59:22.282Z,24.26
2024-01-24T12:00:24.666Z,24.45
2024-01-24T12:01:26.824Z,24.61
2024-01-24T12:02:29.448Z,24.71
2024-01-24T12:03:31.637Z,24.45
2024-01-24T12:04:34.236Z,24.20
2024-01-24T12:05:36.139Z,24.41
2024-01-24T12:06:38.472Z,24.74
2024-01-24T12:07:40.408Z,24.29
2024-01-24T12:08:45.686Z,24.30
2024-01-24T12:10:51.482Z,24.40
2024-01-24T12:11:54.158Z,24.72
2024-01-24T12:12:56.075Z,24.71
2024-01-24T12:13:57.899Z,24.13
2024-01-24T12:15:00.401Z,24.65
2024-01-24T12:16:03.001Z,24.32
2024-01-24T12:17:11.646Z,24.60
2024-01-24T12:18:15.661Z,24.59
2024-01-24T12:19:19.388Z,24.50
2024-01-24T12:20:23.251Z,24.70
2024-01-24T12:21:27.672Z,24.56
2024-01-24T12:22:30.478Z,24.44
2024-01-24T12:23:34.818Z,24.55
2024-01-24T12:24:41.305Z,24.42
2024-01-24T12:25:46.266Z,24.38
2024-01-24T12:26:48.493Z,24.58
2024-01-24T12:27:57.678Z,24.39
2024-01-24T12:29:01.322Z,24.46
2024-01-24T12:30:03.256Z,24.76
2024-01-24T12:31:05.997Z,24.80
2024-01-24T12:32:09.611Z,24.44
2024-01-24T12:33:12.296Z,24.21
2024-01-24T12:34:14.394Z,24.58
2024-01-24T12:35:19.474Z,24.47
2024-01-24T12:36:24.757Z,24.62
2024-01-24T12:37:26.669Z,24.83
2024-01-24T12:38:28.568Z,24.78
2024-01-24T12:39:33.957Z,25.10
2024-01-24T12:40:35.705Z,24.53
2024-01-24T12:41:40.394Z,24.60
2024-01-24T12:42:42.380Z,24.48
2024-01-24T12:43:44.742Z,24.37
2024-01-24T12:44:55.022Z,24.75
2024-01-24T12:45:57.334Z,24.40
2024-01-24T12:47:01.718Z,24.58
2024-01-24T12:48:12.192Z,24.34
2024-01-24T12:49:14.351Z,24.67
2024-01-24T12:50:16.305Z,24.76
2024-01-24T12:51:18.197Z,24.34
2024-01-24T12:52:20.476Z,24.36
2024-01-24T12:53:23.394Z,24.89
2024-01-24T12:54:25.896Z,24.55
2024-01-24T12:55:28.223Z,24.45
2024-01-24T12:56:30.479Z,24.57
2024-01-24T12:57:35.094Z,24.73
2024-01-24T12:58:38.492Z,24.88
2024-01-24T12:59:41.460Z,24.72
2024-01-24T13:00:43.418Z,24.71
2024-01-24T13:01:48.731Z,24.72
2024-01-24T13:02:54.020Z,24.33
2024-01-24T13:03:56.248Z,24.60
2024-01-24T13:04:58.158Z,24.53
2024-01-24T13:06:01.452Z,24.75
2024-01-24T13:07:05.530Z,24.90
2024-01-24T13:08:12.378Z,24.88
2024-01-24T13:09:14.251Z,24.68
2024-01-24T13:10:16.273Z,24.56
2024-01-24T13:11:18.047Z,24.43
2024-01-24T13:12:20.463Z,24.58
2024-01-24T13:13:22.905Z,24.48
2024-01-24T13:14:24.698Z,25.06
2024-01-24T13:15:26.584Z,24.74
2024-01-24T13:16:28.457Z,24.64
2024-01-24T13:17:30.316Z,24.81
2024-01-24T13:18:32.272Z,24.94
2024-01-24T13:19:34.242Z,24.57
2024-01-24T13:20:36.157Z,24.61
2024-01-24T13:21:42.651Z,24.78
2024-01-24T13:22:47.468Z,24.97
2024-01-24T13:23:49.358Z,24.90
2024-01-24T13:24:55.229Z,24.94
2024-01-24T13:25:58.880Z,24.52
2024-01-24T13:27:01.813Z,24.67
2024-01-24T13:28:07.217Z,24.67
2024-01-24T13:29:09.152Z,24.57
2024-01-24T13:30:11.771Z,24.47
2024-01-24T13:31:13.753Z,24.57
2024-01-24T13:32:15.631Z,24.40
2024-01-24T13:33:18.232Z,25.02
2024-01-24T13:34:20.325Z,24.93
2024-01-24T13:35:22.351Z,24.58
2024-01-24T13:36:24.839Z,24.92